createdAt,value
2022-09-05T00:02:48.163Z,0
2022-09-05T00:06:10.081Z,0
2022-09-05T00:09:35.290Z,0
2022-09-05T00:13:07.306Z,0
2022-09-05T00:16:25.728Z,0
2022-09-05T00:22:54.253Z,0
2022-09-05T00:24:23.996Z,0
2022-09-05T00:26:42.324Z,0
2022-09-05T00:30:35.004Z,0
2022-09-05T00:33:31.740Z,0
2022-09-05T00:36:56.810Z,0
2022-09-05T00:40:22.045Z,0
2022-09-05T00:43:47.197Z,0
2022-09-05T00:47:12.412Z,0
2022-09-05T00:50:37.594Z,0
2022-09-05T00:54:02.764Z,0
2022-09-05T00:57:27.913Z,0
2022-09-05T01:00:53.090Z,0
2022-09-05T01:04:18.289Z,0
2022-09-05T01:07:44.164Z,0
2022-09-05T01:11:08.653Z,0
2022-09-05T01:14:33.868Z,0
2022-09-05T01:17:59.410Z,0
2022-09-05T01:21:24.207Z,0
2022-09-05T01:24:49.400Z,0
2022-09-05T01:29:05.374Z,0
2022-09-05T01:31:39.746Z,0
2022-09-05T01:35:04.933Z,0
2022-09-05T01:38:30.123Z,0
2022-09-05T01:41:55.303Z,0
2022-09-05T01:45:20.513Z,0
2022-09-05T01:48:47.482Z,0
2022-09-05T01:52:10.867Z,0
2022-09-05T01:56:02.530Z,0
2022-09-05T01:59:01.230Z,0
2022-09-05T02:02:26.572Z,0
2022-09-05T02:05:51.607Z,0
2022-09-05T02:09:16.817Z,0
2022-09-05T02:12:42.015Z,0
2022-09-05T02:16:07.251Z,0
2022-09-05T02:19:32.355Z,0
2022-09-05T02:22:57.551Z,0
2022-09-05T02:26:22.722Z,0
2022-09-05T02:29:47.922Z,0
2022-09-05T02:33:13.089Z,0
2022-09-05T02:36:38.262Z,0
2022-09-05T02:44:39.487Z,0
2022-09-05T02:45:05.166Z,0
2022-09-05T02:46:53.894Z,0
2022-09-05T02:51:06.917Z,0
2022-09-05T02:57:30.990Z,0
2022-09-05T02:57:32.489Z,0
2022-09-05T03:00:34.489Z,0
2022-09-05T03:03:59.669Z,0
2022-09-05T03:07:24.862Z,0
2022-09-05T03:10:54.022Z,0
2022-09-05T03:14:15.236Z,0
2022-09-05T03:17:40.418Z,0
2022-09-05T03:21:09.327Z,0
2022-09-05T03:24:30.759Z,0
2022-09-05T03:27:55.962Z,0
2022-09-05T03:31:22.341Z,0
2022-09-05T03:34:46.341Z,0
2022-09-05T03:38:12.325Z,0
2022-09-05T03:41:40.398Z,0
2022-09-05T03:45:02.718Z,0
2022-09-05T03:48:29.235Z,0
2022-09-05T03:55:21.581Z,0
2022-09-05T03:57:09.982Z,0
2022-09-05T03:58:59.524Z,0
2022-09-05T04:02:22.425Z,0
2022-09-05T04:08:13.063Z,0
2022-09-05T04:08:59.663Z,0
2022-09-05T04:12:24.747Z,0
2022-09-05T04:15:51.387Z,1
2022-09-05T04:19:15.092Z,1
2022-09-05T04:22:40.250Z,2
2022-09-05T04:26:11.213Z,2
2022-09-05T04:29:30.579Z,3
2022-09-05T04:32:55.774Z,5
2022-09-05T04:36:20.971Z,6
2022-09-05T04:39:46.241Z,8
2022-09-05T04:43:11.344Z,11
2022-09-05T04:46:47.484Z,14
2022-09-05T04:50:01.738Z,16
2022-09-05T04:53:26.927Z,19
2022-09-05T04:56:52.139Z,23
2022-09-05T05:01:56.068Z,27
2022-09-05T05:06:07.492Z,29
2022-09-05T05:07:09.156Z,33
2022-09-05T05:11:08.847Z,35
2022-09-05T05:17:05.177Z,39
2022-09-05T05:18:05.889Z,41
2022-09-05T05:20:48.425Z,43
2022-09-05T05:24:13.574Z,46
2022-09-05T05:27:38.764Z,49
2022-09-05T05:31:03.970Z,51
2022-09-05T05:34:29.142Z,53
2022-09-05T05:37:54.328Z,55
2022-09-05T05:41:19.538Z,58
2022-09-05T05:44:44.730Z,60
2022-09-05T05:48:09.914Z,63
2022-09-05T05:51:57.110Z,66
2022-09-05T05:55:07.394Z,72
2022-09-05T05:58:25.589Z,77
2022-09-05T06:01:50.775Z,85
2022-09-05T06:05:15.893Z,94
2022-09-05T06:10:03.745Z,109
2022-09-05T06:14:53.970Z,115
2022-09-05T06:15:32.171Z,123
2022-09-05T06:18:56.617Z,125
2022-09-05T06:22:21.881Z,137
2022-09-05T06:25:46.995Z,133
2022-09-05T06:29:12.183Z,127
2022-09-05T06:32:37.441Z,111
2022-09-05T06:36:04.561Z,120
2022-09-05T06:39:27.777Z,125
2022-09-05T06:42:52.935Z,128
2022-09-05T06:46:52.897Z,126
2022-09-05T06:49:45.976Z,130
2022-09-05T06:53:19.801Z,133
2022-09-05T06:56:33.650Z,143
2022-09-05T06:59:58.824Z,135
2022-09-05T07:03:24.201Z,125
2022-09-05T07:07:01.346Z,126
2022-09-05T07:10:37.185Z,153
2022-09-05T07:13:44.503Z,176
2022-09-05T07:17:04.770Z,199
2022-09-05T07:20:29.948Z,198
2022-09-05T07:24:07.417Z,208
2022-09-05T07:27:20.301Z,202
2022-09-05T07:30:45.497Z,193
2022-09-05T07:34:20.538Z,189
2022-09-05T07:37:35.868Z,184
2022-09-05T07:41:01.106Z,188
2022-09-05T07:44:26.297Z,191
2022-09-05T07:47:51.497Z,191
2022-09-05T07:53:46.438Z,178
2022-09-05T07:56:58.035Z,176
2022-09-05T07:58:07.015Z,189
2022-09-05T08:01:32.920Z,190
2022-09-05T08:04:57.460Z,192
2022-09-05T08:08:22.913Z,198
2022-09-05T08:11:48.351Z,207
2022-09-05T08:15:14.036Z,190
2022-09-05T08:18:38.123Z,178
2022-09-05T08:22:03.420Z,179
2022-09-05T08:25:34.949Z,183
2022-09-05T08:28:53.808Z,176
2022-09-05T08:32:18.995Z,179
2022-09-05T08:35:44.157Z,185
2022-09-05T08:39:09.357Z,175
2022-09-05T08:42:34.536Z,172
2022-09-05T08:46:39.012Z,169
2022-09-05T08:49:32.531Z,164
2022-09-05T08:52:50.190Z,164
2022-09-05T08:56:16.986Z,166
2022-09-05T08:59:44.192Z,163
2022-09-05T09:03:05.750Z,161
2022-09-05T09:06:30.919Z,165
2022-09-05T09:09:56.095Z,178
2022-09-05T09:13:21.326Z,187
2022-09-05T09:16:46.512Z,202
2022-09-05T09:20:11.716Z,206
2022-09-05T09:23:36.932Z,233
2022-09-05T09:27:02.153Z,264
2022-09-05T09:30:27.394Z,270
2022-09-05T09:33:52.612Z,305
2022-09-05T09:37:17.814Z,267
2022-09-05T09:40:43.808Z,255
2022-09-05T09:44:08.310Z,238
2022-09-05T09:47:33.474Z,232
2022-09-05T09:50:59.813Z,215
2022-09-05T09:54:23.904Z,235
2022-09-05T09:57:49.140Z,242
2022-09-05T10:01:35.667Z,233
2022-09-05T10:09:25.176Z,227
2022-09-05T10:10:37.209Z,222
2022-09-05T10:11:52.394Z,214
2022-09-05T10:14:55.179Z,203
2022-09-05T10:18:21.910Z,167
2022-09-05T10:21:45.691Z,172
2022-09-05T10:25:13.738Z,378
2022-09-05T10:28:35.997Z,633
2022-09-05T10:33:11.903Z,300
2022-09-05T10:35:27.091Z,365
2022-09-05T10:38:51.754Z,450
2022-09-05T10:42:16.982Z,441
2022-09-05T10:45:42.210Z,405
2022-09-05T10:49:07.590Z,436
2022-09-05T10:52:32.806Z,440
2022-09-05T10:55:58.025Z,460
2022-09-05T10:59:53.327Z,379
2022-09-05T11:02:52.579Z,350
2022-09-05T11:06:13.760Z,358
2022-09-05T11:09:39.031Z,360
2022-09-05T11:13:04.283Z,326
2022-09-05T11:16:29.597Z,317
2022-09-05T11:19:54.800Z,312
2022-09-05T11:23:20.112Z,297
2022-09-05T11:26:46.717Z,304
2022-09-05T11:30:10.501Z,287
2022-09-05T11:36:01.058Z,284
2022-09-05T11:39:49.883Z,283
2022-09-05T11:40:41.782Z,270
2022-09-05T11:43:52.061Z,274
2022-09-05T11:47:28.581Z,273
2022-09-05T11:51:16.089Z,274
2022-09-05T11:55:29.428Z,268
2022-09-05T11:59:05.262Z,258
2022-09-05T12:02:32.238Z,254
2022-09-05T12:06:06.647Z,254
2022-09-05T12:09:36.155Z,249
2022-09-05T12:13:05.478Z,249
2022-09-05T12:16:31.633Z,243
2022-09-05T12:19:57.932Z,247
2022-09-05T12:23:39.971Z,248
2022-09-05T12:27:37.608Z,244
2022-09-05T12:30:13.947Z,255
2022-09-05T12:35:55.700Z,267
2022-09-05T12:39:45.251Z,280
2022-09-05T12:40:58.598Z,286
2022-09-05T12:44:40.614Z,286
2022-09-05T12:47:21.233Z,286
2022-09-05T12:50:45.186Z,285
2022-09-05T12:54:24.453Z,280
2022-09-05T12:58:02.778Z,277
2022-09-05T13:02:59.886Z,295
2022-09-05T13:04:31.458Z,304
2022-09-05T13:07:51.628Z,308
2022-09-05T13:14:52.022Z,318
2022-09-05T13:14:59.532Z,318
2022-09-05T13:18:07.337Z,325
2022-09-05T13:21:32.539Z,377
2022-09-05T13:24:57.766Z,406
2022-09-05T13:28:23.027Z,420
2022-09-05T13:34:03.129Z,500
2022-09-05T13:38:09.043Z,499
2022-09-05T13:38:47.966Z,456
2022-09-05T13:42:03.941Z,414
2022-09-05T13:45:29.216Z,374
2022-09-05T13:52:19.679Z,256
2022-09-05T13:55:44.870Z,303
2022-09-05T13:59:10.112Z,228
2022-09-05T14:03:28.428Z,277
2022-09-05T14:06:00.533Z,265
2022-09-05T14:09:41.111Z,255
2022-09-05T14:12:53.762Z,253
2022-09-05T14:16:16.294Z,241
2022-09-05T14:19:43.332Z,115
2022-09-05T14:23:07.417Z,115
2022-09-05T14:26:31.970Z,120
2022-09-05T14:29:57.225Z,119
2022-09-05T15:07:12.597Z,199
2022-09-05T15:11:26.107Z,190
2022-09-05T15:14:03.051Z,168
2022-09-05T15:17:28.309Z,160
2022-09-05T15:20:53.544Z,154
2022-09-05T15:24:18.797Z,141
2022-09-05T15:27:44.042Z,73
2022-09-05T15:31:09.401Z,69
2022-09-05T15:34:34.510Z,71
2022-09-05T15:37:59.749Z,75
2022-09-05T15:41:25.006Z,76
2022-09-05T15:45:06.663Z,91
2022-09-05T15:48:15.556Z,98
2022-09-05T15:51:40.769Z,99
2022-09-05T15:55:06.016Z,90
2022-09-05T15:58:52.941Z,83
2022-09-05T16:02:00.063Z,78
2022-09-05T16:09:40.998Z,70
2022-09-05T16:10:33.379Z,68
2022-09-05T16:12:16.175Z,68
2022-09-05T16:17:41.852Z,60
2022-09-05T16:22:49.768Z,58
2022-09-05T16:23:21.735Z,63
2022-09-05T16:25:53.859Z,56
2022-09-05T16:29:22.624Z,50
2022-09-05T16:32:46.502Z,51
2022-09-05T16:36:12.949Z,46
2022-09-05T16:39:34.872Z,45
2022-09-05T16:43:00.053Z,44
2022-09-05T16:46:25.313Z,41
2022-09-05T16:49:53.822Z,43
2022-09-05T16:53:16.017Z,42
2022-09-05T16:56:41.215Z,41
2022-09-05T17:00:06.515Z,43
2022-09-05T17:03:31.739Z,44
2022-09-05T17:06:57.135Z,42
2022-09-05T17:10:23.451Z,38
2022-09-05T17:13:47.620Z,33
2022-09-05T17:17:36.038Z,31
2022-09-05T17:20:38.100Z,27
2022-09-05T17:27:46.895Z,23
2022-09-05T17:29:22.163Z,18
2022-09-05T17:31:40.969Z,14
2022-09-05T17:34:19.852Z,11
2022-09-05T17:37:45.112Z,8
2022-09-05T17:41:10.418Z,7
2022-09-05T17:44:35.680Z,5
2022-09-05T17:48:00.948Z,4
2022-09-05T17:51:26.230Z,3
2022-09-05T17:54:51.496Z,2
2022-09-05T17:58:16.744Z,1
2022-09-05T18:01:42.038Z,1
2022-09-05T18:05:07.303Z,1
2022-09-05T18:08:32.565Z,0
2022-09-05T18:11:57.857Z,0
2022-09-05T18:15:23.197Z,0
2022-09-05T18:19:29.296Z,0
2022-09-05T18:22:25.516Z,0
2022-09-05T18:25:50.677Z,0
2022-09-05T18:33:29.039Z,0
2022-09-05T18:36:25.694Z,0
2022-09-05T18:39:48.936Z,0
2022-09-05T18:43:14.131Z,0
2022-09-05T18:46:39.426Z,0
2022-09-05T18:50:22.763Z,0
2022-09-05T18:53:30.206Z,0
2022-09-05T18:57:16.811Z,0
2022-09-05T19:00:20.410Z,0
2022-09-05T19:03:45.756Z,0
2022-09-05T19:07:10.910Z,0
2022-09-05T19:10:36.945Z,0
2022-09-05T19:14:25.911Z,0
2022-09-05T19:17:27.369Z,0
2022-09-05T19:20:52.023Z,0
2022-09-05T19:24:17.293Z,0
2022-09-05T19:29:27.971Z,0
2022-09-05T19:36:42.516Z,0
2022-09-05T19:37:00.517Z,0
2022-09-05T19:37:59.136Z,0
2022-09-05T19:45:31.449Z,0
2022-09-05T19:47:33.516Z,0
2022-09-05T19:48:15.434Z,0
2022-09-05T19:51:40.325Z,0
2022-09-05T19:55:05.570Z,0
2022-09-05T19:58:31.023Z,0
2022-09-05T20:01:56.246Z,0
2022-09-05T20:05:21.485Z,0
2022-09-05T20:08:46.730Z,0
2022-09-05T20:12:12.042Z,0
2022-09-05T20:15:37.319Z,0
2022-09-05T20:19:02.566Z,0
2022-09-05T20:22:48.260Z,0
2022-09-05T20:25:53.133Z,0
2022-09-05T20:29:18.400Z,0
2022-09-05T20:32:43.651Z,0
2022-09-05T20:37:36.126Z,0
2022-09-05T20:43:13.760Z,0
2022-09-05T20:43:26.226Z,0
2022-09-05T20:47:27.402Z,0
2022-09-05T20:54:11.327Z,0
2022-09-05T20:54:23.933Z,0
2022-09-05T20:56:40.498Z,0
2022-09-05T21:00:05.785Z,0
2022-09-05T21:03:31.230Z,0
2022-09-05T21:06:56.300Z,0
2022-09-05T21:10:21.587Z,0
2022-09-05T21:13:52.759Z,0
2022-09-05T21:17:15.276Z,0
2022-09-05T21:20:37.399Z,0
2022-09-05T21:24:11.992Z,0
2022-09-05T21:27:27.898Z,0
2022-09-05T21:30:53.177Z,0
2022-09-05T21:34:18.425Z,0
2022-09-05T21:37:43.678Z,0
2022-09-05T21:41:08.957Z,0
2022-09-05T21:47:37.258Z,0
2022-09-05T21:47:59.711Z,0
2022-09-05T21:51:24.752Z,0
2022-09-05T21:56:38.683Z,0
2022-09-05T21:59:23.489Z,0
2022-09-05T22:01:52.174Z,0
2022-09-05T22:05:05.788Z,0
2022-09-05T22:08:31.021Z,0
2022-09-05T22:11:56.259Z,0
2022-09-05T22:15:27.110Z,0
2022-09-05T22:18:46.766Z,0
2022-09-05T22:22:12.030Z,0
2022-09-05T22:25:37.338Z,0
2022-09-05T22:29:02.613Z,0
2022-09-05T22:32:34.941Z,0
2022-09-05T22:35:53.067Z,0
2022-09-05T22:39:25.633Z,0
2022-09-05T22:42:43.564Z,0
2022-09-05T22:46:08.847Z,0
2022-09-05T22:49:34.058Z,0
2022-09-05T22:52:59.324Z,0
2022-09-05T22:56:24.597Z,0
2022-09-05T22:59:49.850Z,0
2022-09-05T23:03:15.169Z,0
2022-09-05T23:06:40.431Z,0
2022-09-05T23:10:05.694Z,0
2022-09-05T23:13:30.925Z,0
2022-09-05T23:16:56.150Z,0
2022-09-05T23:20:21.404Z,0
2022-09-05T23:23:46.680Z,0
2022-09-05T23:27:11.936Z,0
2022-09-05T23:30:37.185Z,0
2022-09-05T23:34:02.439Z,0
2022-09-05T23:37:27.693Z,0
2022-09-05T23:40:52.938Z,0
2022-09-05T23:44:18.207Z,0
2022-09-05T23:47:43.446Z,0
2022-09-05T23:51:08.674Z,0
2022-09-05T23:54:33.936Z,0
2022-09-05T23:57:59.197Z,0
